sensor_id;sensor_type;location;lat;lon;timestamp;temperature;humidity
6756;DHT22;3415;51.148;7.014;2022-07-21T06:21:41;19.00;1.00
6756;DHT22;3415;51.148;7.014;2022-07-21T06:24:08;18.90;1.00
6756;DHT22;3415;51.148;7.014;2022-07-21T06:26:35;18.90;1.00
6756;DHT22;3415;51.148;7.014;2022-07-21T06:29:04;18.90;1.00
6756;DHT22;3415;51.148;7.014;2022-07-21T06:31:31;18.90;1.00
6756;DHT22;3415;51.148;7.014;2022-07-21T06:33:58;18.70;1.00
6756;DHT22;3415;51.148;7.014;2022-07-21T06:36:25;18.70;1.00
6756;DHT22;3415;51.148;7.014;2022-07-21T06:38:54;18.70;1.00
6756;DHT22;3415;51.148;7.014;2022-07-21T06:41:20;18.70;1.00
6756;DHT22;3415;51.148;7.014;2022-07-21T06:43:49;18.70;1.00
6756;DHT22;3415;51.148;7.014;2022-07-21T06:46:16;18.80;1.00
6756;DHT22;3415;51.148;7.014;2022-07-21T06:48:43;19.00;1.00
6756;DHT22;3415;51.148;7.014;2022-07-21T06:51:10;19.10;1.00
6756;DHT22;3415;51.148;7.014;2022-07-21T06:53:37;19.20;1.00
6756;DHT22;3415;51.148;7.014;2022-07-21T06:56:06;19.40;1.00
6756;DHT22;3415;51.148;7.014;2022-07-21T06:58:33;19.60;1.00
6756;DHT22;3415;51.148;7.014;2022-07-21T07:01:01;20.10;1.00
6756;DHT22;3415;51.148;7.014;2022-07-21T07:03:28;20.80;99.90
6756;DHT22;3415;51.148;7.014;2022-07-21T07:05:55;21.60;99.90
6756;DHT22;3415;51.148;7.014;2022-07-21T07:08:22;22.20;51.50
6756;DHT22;3415;51.148;7.014;2022-07-21T07:10:49;22.00;1.00
6756;DHT22;3415;51.148;7.014;2022-07-21T07:13:18;21.60;1.00
6756;DHT22;3415;51.148;7.014;2022-07-21T07:15:45;21.40;1.00
6756;DHT22;3415;51.148;7.014;2022-07-21T07:18:12;21.30;2.20
6756;DHT22;3415;51.148;7.014;2022-07-21T07:20:38;21.10;1.00
6756;DHT22;3415;51.148;7.014;2022-07-21T07:25:32;20.80;10.90
6756;DHT22;3415;51.148;7.014;2022-07-21T07:27:59;20.80;8.30
6756;DHT22;3415;51.148;7.014;2022-07-21T07:30:28;21.00;1.00
6756;DHT22;3415;51.148;7.014;2022-07-21T07:32:55;20.90;1.00
6756;DHT22;3415;51.148;7.014;2022-07-21T07:35:22;20.90;1.00
6756;DHT22;3415;51.148;7.014;2022-07-21T07:37:49;21.20;1.00
6756;DHT22;3415;51.148;7.014;2022-07-21T07:40:18;21.90;1.00
6756;DHT22;3415;51.148;7.014;2022-07-21T07:42:46;22.50;1.00
6756;DHT22;3415;51.148;7.014;2022-07-21T07:45:13;23.60;1.00
6756;DHT22;3415;51.148;7.014;2022-07-21T07:47:42;24.00;1.00
6756;DHT22;3415;51.148;7.014;2022-07-21T07:50:11;24.50;1.00
6756;DHT22;3415;51.148;7.014;2022-07-21T07:52:39;24.40;1.00
6756;DHT22;3415;51.148;7.014;2022-07-21T07:55:07;24.40;1.00
6756;DHT22;3415;51.148;7.014;2022-07-21T07:57:36;25.10;1.00
6756;DHT22;3415;51.148;7.014;2022-07-21T08:00:06;25.50;1.00
6756;DHT22;3415;51.148;7.014;2022-07-21T08:02:34;25.70;1.00
6756;DHT22;3415;51.148;7.014;2022-07-21T08:05:03;25.80;1.00
6756;DHT22;3415;51.148;7.014;2022-07-21T08:07:31;25.40;1.00
6756;DHT22;3415;51.148;7.014;2022-07-21T08:09:58;24.40;1.00
6756;DHT22;3415;51.148;7.014;2022-07-21T08:12:25;24.90;1.00
6756;DHT22;3415;51.148;7.014;2022-07-21T08:14:52;24.90;1.00
6756;DHT22;3415;51.148;7.014;2022-07-21T08:17:19;25.20;1.00
6756;DHT22;3415;51.148;7.014;2022-07-21T08:19:46;24.00;1.00
6756;DHT22;3415;51.148;7.014;2022-07-21T08:22:15;24.10;1.00
6756;DHT22;3415;51.148;7.014;2022-07-21T08:24:42;24.80;1.00
6756;DHT22;3415;51.148;7.014;2022-07-21T08:27:09;25.70;1.00
6756;DHT22;3415;51.148;7.014;2022-07-21T08:29:36;25.20;1.00
6756;DHT22;3415;51.148;7.014;2022-07-21T08:32:04;25.20;1.00
6756;DHT22;3415;51.148;7.014;2022-07-21T08:34:31;25.70;1.00
6756;DHT22;3415;51.148;7.014;2022-07-21T08:36:58;25.30;1.00
6756;DHT22;3415;51.148;7.014;2022-07-21T08:39:26;24.40;1.00
6756;DHT22;3415;51.148;7.014;2022-07-21T08:41:53;24.00;1.00
6756;DHT22;3415;51.148;7.014;2022-07-21T08:44:20;22.70;1.00
6756;DHT22;3415;51.148;7.014;2022-07-21T08:46:50;22.70;1.00
6756;DHT22;3415;51.148;7.014;2022-07-21T08:49:20;22.30;1.00
6756;DHT22;3415;51.148;7.014;2022-07-21T08:51:48;22.00;1.00
6756;DHT22;3415;51.148;7.014;2022-07-21T08:54:16;22.10;1.00
6756;DHT22;3415;51.148;7.014;2022-07-21T08:56:45;22.50;1.00
6756;DHT22;3415;51.148;7.014;2022-07-21T08:59:12;22.90;1.00
6756;DHT22;3415;51.148;7.014;2022-07-21T09:01:39;23.20;1.00
6756;DHT22;3415;51.148;7.014;2022-07-21T09:04:22;23.10;1.00
6756;DHT22;3415;51.148;7.014;2022-07-21T09:06:53;23.60;1.00
6756;DHT22;3415;51.148;7.014;2022-07-21T09:09:21;23.20;1.00
6756;DHT22;3415;51.148;7.014;2022-07-21T09:11:50;23.20;1.00
6756;DHT22;3415;51.148;7.014;2022-07-21T09:14:19;24.40;1.00
6756;DHT22;3415;51.148;7.014;2022-07-21T09:16:49;23.90;1.00
6756;DHT22;3415;51.148;7.014;2022-07-21T09:19:18;23.80;1.00
6756;DHT22;3415;51.148;7.014;2022-07-21T09:21:46;23.40;1.00
6756;DHT22;3415;51.148;7.014;2022-07-21T09:24:20;23.40;1.00
6756;DHT22;3415;51.148;7.014;2022-07-21T09:27:00;24.00;1.00
6756;DHT22;3415;51.148;7.014;2022-07-21T09:29:34;24.80;1.00
6756;DHT22;3415;51.148;7.014;2022-07-21T09:32:16;25.40;1.00
6756;DHT22;3415;51.148;7.014;2022-07-21T09:34:43;25.30;1.00
6756;DHT22;3415;51.148;7.014;2022-07-21T09:37:10;25.30;1.00
6756;DHT22;3415;51.148;7.014;2022-07-21T09:39:41;26.60;1.00
6756;DHT22;3415;51.148;7.014;2022-07-21T09:42:15;27.90;1.00
6756;DHT22;3415;51.148;7.014;2022-07-21T09:44:44;27.00;99.90
6756;DHT22;3415;51.148;7.014;2022-07-21T09:47:12;26.00;99.90
6756;DHT22;3415;51.148;7.014;2022-07-21T09:49:39;25.80;99.90
6756;DHT22;3415;51.148;7.014;2022-07-21T09:52:27;25.80;99.90
6756;DHT22;3415;51.148;7.014;2022-07-21T09:54:56;25.20;99.90
6756;DHT22;3415;51.148;7.014;2022-07-21T09:57:25;24.50;1.00
6756;DHT22;3415;51.148;7.014;2022-07-21T09:59:52;23.90;1.00
6756;DHT22;3415;51.148;7.014;2022-07-21T10:02:21;24.00;1.00
6756;DHT22;3415;51.148;7.014;2022-07-21T10:04:53;23.90;1.00
6756;DHT22;3415;51.148;7.014;2022-07-21T10:07:22;23.80;1.00
6756;DHT22;3415;51.148;7.014;2022-07-21T10:09:49;23.90;1.00
6756;DHT22;3415;51.148;7.014;2022-07-21T10:12:16;24.00;1.00
6756;DHT22;3415;51.148;7.014;2022-07-21T10:14:45;24.30;1.00
6756;DHT22;3415;51.148;7.014;2022-07-21T10:17:13;24.20;1.00
6756;DHT22;3415;51.148;7.014;2022-07-21T10:19:57;24.30;1.00
6756;DHT22;3415;51.148;7.014;2022-07-21T10:22:34;24.00;1.00
6756;DHT22;3415;51.148;7.014;2022-07-21T10:25:03;24.00;1.00
6756;DHT22;3415;51.148;7.014;2022-07-21T10:27:30;24.10;1.00
6756;DHT22;3415;51.148;7.014;2022-07-21T10:30:00;24.20;1.00
6756;DHT22;3415;51.148;7.014;2022-07-21T10:32:30;24.30;1.00
6756;DHT22;3415;51.148;7.014;2022-07-21T10:34:58;24.10;1.00
6756;DHT22;3415;51.148;7.014;2022-07-21T10:37:44;23.30;1.00
6756;DHT22;3415;51.148;7.014;2022-07-21T10:40:37;23.20;1.00
6756;DHT22;3415;51.148;7.014;2022-07-21T10:43:35;22.70;1.00
6756;DHT22;3415;51.148;7.014;2022-07-21T10:46:35;22.40;1.00
6756;DHT22;3415;51.148;7.014;2022-07-21T10:49:06;21.90;1.00
6756;DHT22;3415;51.148;7.014;2022-07-21T10:51:35;21.10;1.00
6756;DHT22;3415;51.148;7.014;2022-07-21T10:54:22;21.20;1.00
6756;DHT22;3415;51.148;7.014;2022-07-21T10:59:16;20.70;1.00
6756;DHT22;3415;51.148;7.014;2022-07-21T11:01:44;20.70;1.00
6756;DHT22;3415;51.148;7.014;2022-07-21T11:04:13;20.70;1.00
6756;DHT22;3415;51.148;7.014;2022-07-21T11:06:42;20.50;1.00
6756;DHT22;3415;51.148;7.014;2022-07-21T11:09:11;20.50;1.00
6756;DHT22;3415;51.148;7.014;2022-07-21T11:11:55;20.50;1.00
6756;DHT22;3415;51.148;7.014;2022-07-21T11:14:35;20.80;1.00
6756;DHT22;3415;51.148;7.014;2022-07-21T11:17:04;21.00;1.00
6756;DHT22;3415;51.148;7.014;2022-07-21T11:19:33;21.00;1.00
6756;DHT22;3415;51.148;7.014;2022-07-21T11:22:03;21.30;1.00
6756;DHT22;3415;51.148;7.014;2022-07-21T11:24:31;21.40;1.00
6756;DHT22;3415;51.148;7.014;2022-07-21T11:27:01;21.30;1.00
6756;DHT22;3415;51.148;7.014;2022-07-21T11:29:30;21.40;1.00
6756;DHT22;3415;51.148;7.014;2022-07-21T11:31:58;21.20;1.00
6756;DHT22;3415;51.148;7.014;2022-07-21T11:34:37;21.10;1.00
6756;DHT22;3415;51.148;7.014;2022-07-21T11:37:04;20.90;1.00
6756;DHT22;3415;51.148;7.014;2022-07-21T11:39:31;20.90;1.00
6756;DHT22;3415;51.148;7.014;2022-07-21T11:42:02;20.80;1.00
6756;DHT22;3415;51.148;7.014;2022-07-21T11:44:29;20.60;1.00
6756;DHT22;3415;51.148;7.014;2022-07-21T11:46:58;20.50;1.00
6756;DHT22;3415;51.148;7.014;2022-07-21T11:49:25;20.30;1.00
6756;DHT22;3415;51.148;7.014;2022-07-21T11:51:55;20.20;1.00
6756;DHT22;3415;51.148;7.014;2022-07-21T11:54:26;20.10;13.00
6756;DHT22;3415;51.148;7.014;2022-07-21T11:56:54;19.90;21.80
6756;DHT22;3415;51.148;7.014;2022-07-21T11:59:22;16.60;58.50
6756;DHT22;3415;51.148;7.014;2022-07-21T12:01:55;19.80;99.90
6756;DHT22;3415;51.148;7.014;2022-07-21T12:04:37;19.70;99.90
6756;DHT22;3415;51.148;7.014;2022-07-21T12:07:11;19.50;99.90
6756;DHT22;3415;51.148;7.014;2022-07-21T12:09:39;19.50;99.90
6756;DHT22;3415;51.148;7.014;2022-07-21T12:12:07;19.40;99.90
6756;DHT22;3415;51.148;7.014;2022-07-21T12:14:42;19.40;99.90
6756;DHT22;3415;51.148;7.014;2022-07-21T12:17:10;19.20;99.90
6756;DHT22;3415;51.148;7.014;2022-07-21T12:19:37;19.10;1.00
6756;DHT22;3415;51.148;7.014;2022-07-21T12:22:07;19.10;1.00
6756;DHT22;3415;51.148;7.014;2022-07-21T12:24:54;18.90;1.00
6756;DHT22;3415;51.148;7.014;2022-07-21T12:27:22;18.80;1.00
6756;DHT22;3415;51.148;7.014;2022-07-21T12:29:49;18.80;1.00
6756;DHT22;3415;51.148;7.014;2022-07-21T12:32:47;18.80;1.00
6756;DHT22;3415;51.148;7.014;2022-07-21T12:35:23;18.80;1.00
6756;DHT22;3415;51.148;7.014;2022-07-21T12:37:55;18.80;1.00
6756;DHT22;3415;51.148;7.014;2022-07-21T12:40:23;18.80;1.00
6756;DHT22;3415;51.148;7.014;2022-07-21T12:42:51;18.80;1.00
6756;DHT22;3415;51.148;7.014;2022-07-21T12:45:28;18.60;1.00
6756;DHT22;3415;51.148;7.014;2022-07-21T12:48:07;18.60;1.00
6756;DHT22;3415;51.148;7.014;2022-07-21T12:50:35;18.50;1.00
6756;DHT22;3415;51.148;7.014;2022-07-21T12:53:04;18.60;1.00
6756;DHT22;3415;51.148;7.014;2022-07-21T12:55:31;18.60;1.00
6756;DHT22;3415;51.148;7.014;2022-07-21T12:57:58;18.60;1.00
6756;DHT22;3415;51.148;7.014;2022-07-21T13:00:25;18.70;1.00
6756;DHT22;3415;51.148;7.014;2022-07-21T13:02:54;18.70;1.00
6756;DHT22;3415;51.148;7.014;2022-07-21T13:05:23;18.80;1.00
6756;DHT22;3415;51.148;7.014;2022-07-21T13:07:51;18.80;1.00
6756;DHT22;3415;51.148;7.014;2022-07-21T13:10:18;18.80;1.00
6756;DHT22;3415;51.148;7.014;2022-07-21T13:12:45;18.80;1.00
6756;DHT22;3415;51.148;7.014;2022-07-21T13:15:13;18.80;1.00
6756;DHT22;3415;51.148;7.014;2022-07-21T13:17:40;18.80;1.00
6756;DHT22;3415;51.148;7.014;2022-07-21T13:20:08;18.80;1.00
6756;DHT22;3415;51.148;7.014;2022-07-21T13:22:36;18.70;1.00
6756;DHT22;3415;51.148;7.014;2022-07-21T13:25:04;18.70;1.00
6756;DHT22;3415;51.148;7.014;2022-07-21T13:27:32;18.70;1.00
6756;DHT22;3415;51.148;7.014;2022-07-21T13:29:59;18.50;1.00
6756;DHT22;3415;51.148;7.014;2022-07-21T13:32:26;18.40;1.00
6756;DHT22;3415;51.148;7.014;2022-07-21T13:34:54;18.50;1.00
6756;DHT22;3415;51.148;7.014;2022-07-21T13:37:21;18.10;1.00
6756;DHT22;3415;51.148;7.014;2022-07-21T13:39:49;18.10;1.00
6756;DHT22;3415;51.148;7.014;2022-07-21T13:42:16;18.20;1.00
6756;DHT22;3415;51.148;7.014;2022-07-21T13:44:43;18.30;1.00
6756;DHT22;3415;51.148;7.014;2022-07-21T13:47:10;18.40;1.00
6756;DHT22;3415;51.148;7.014;2022-07-21T13:49:37;18.40;1.00
6756;DHT22;3415;51.148;7.014;2022-07-21T13:52:04;18.40;1.00
6756;DHT22;3415;51.148;7.014;2022-07-21T13:54:31;18.40;1.00
6756;DHT22;3415;51.148;7.014;2022-07-21T13:56:59;18.50;1.00
6756;DHT22;3415;51.148;7.014;2022-07-21T13:59:27;18.50;1.00
6756;DHT22;3415;51.148;7.014;2022-07-21T14:01:55;18.40;1.00
6756;DHT22;3415;51.148;7.014;2022-07-21T14:04:22;18.40;1.00
6756;DHT22;3415;51.148;7.014;2022-07-21T14:06:49;18.50;1.00
6756;DHT22;3415;51.148;7.014;2022-07-21T14:09:18;18.50;1.00
6756;DHT22;3415;51.148;7.014;2022-07-21T14:11:45;18.50;1.00
6756;DHT22;3415;51.148;7.014;2022-07-21T14:14:14;18.60;1.00
6756;DHT22;3415;51.148;7.014;2022-07-21T14:16:46;18.60;1.00
6756;DHT22;3415;51.148;7.014;2022-07-21T14:19:13;18.50;1.00
6756;DHT22;3415;51.148;7.014;2022-07-21T14:21:40;18.50;1.00
6756;DHT22;3415;51.148;7.014;2022-07-21T14:24:07;18.50;1.00
6756;DHT22;3415;51.148;7.014;2022-07-21T14:26:51;18.50;1.00
6756;DHT22;3415;51.148;7.014;2022-07-21T14:29:20;18.40;1.00
6756;DHT22;3415;51.148;7.014;2022-07-21T14:31:46;18.30;1.00
6756;DHT22;3415;51.148;7.014;2022-07-21T14:34:14;18.30;1.00
6756;DHT22;3415;51.148;7.014;2022-07-21T14:36:41;18.40;1.00
6756;DHT22;3415;51.148;7.014;2022-07-21T14:39:09;18.40;1.00
6756;DHT22;3415;51.148;7.014;2022-07-21T14:41:36;18.50;1.00
6756;DHT22;3415;51.148;7.014;2022-07-21T14:44:03;18.60;1.00
6756;DHT22;3415;51.148;7.014;2022-07-21T14:46:32;18.60;1.00
6756;DHT22;3415;51.148;7.014;2022-07-21T14:48:58;18.50;1.00
6756;DHT22;3415;51.148;7.014;2022-07-21T14:51:25;18.50;1.00
6756;DHT22;3415;51.148;7.014;2022-07-21T14:53:52;18.50;1.00
6756;DHT22;3415;51.148;7.014;2022-07-21T14:56:19;18.50;1.00
6756;DHT22;3415;51.148;7.014;2022-07-21T14:58:46;18.40;1.00
6756;DHT22;3415;51.148;7.014;2022-07-21T15:01:13;18.50;1.00
6756;DHT22;3415;51.148;7.014;2022-07-21T15:03:41;18.50;1.00
6756;DHT22;3415;51.148;7.014;2022-07-21T15:06:08;18.50;1.00
6756;DHT22;3415;51.148;7.014;2022-07-21T15:08:35;18.50;1.00
6756;DHT22;3415;51.148;7.014;2022-07-21T15:11:02;18.50;1.00
6756;DHT22;3415;51.148;7.014;2022-07-21T15:13:29;18.50;1.00
6756;DHT22;3415;51.148;7.014;2022-07-21T15:15:57;18.50;1.00
6756;DHT22;3415;51.148;7.014;2022-07-21T15:18:23;18.60;1.00
6756;DHT22;3415;51.148;7.014;2022-07-21T15:20:52;18.60;1.00
6756;DHT22;3415;51.148;7.014;2022-07-21T15:23:19;18.70;1.00
6756;DHT22;3415;51.148;7.014;2022-07-21T15:25:45;18.70;1.00
6756;DHT22;3415;51.148;7.014;2022-07-21T15:28:12;18.70;1.00
6756;DHT22;3415;51.148;7.014;2022-07-21T15:30:39;18.60;1.00
6756;DHT22;3415;51.148;7.014;2022-07-21T15:33:06;18.70;1.00
6756;DHT22;3415;51.148;7.014;2022-07-21T15:35:33;18.70;1.00
6756;DHT22;3415;51.148;7.014;2022-07-21T15:38:01;18.70;1.00
6756;DHT22;3415;51.148;7.014;2022-07-21T15:40:28;18.70;1.00
6756;DHT22;3415;51.148;7.014;2022-07-21T15:42:55;18.70;1.00
6756;DHT22;3415;51.148;7.014;2022-07-21T15:47:49;18.70;1.00
6756;DHT22;3415;51.148;7.014;2022-07-21T15:50:16;18.80;1.00
6756;DHT22;3415;51.148;7.014;2022-07-21T15:52:43;18.80;1.00
6756;DHT22;3415;51.148;7.014;2022-07-21T15:55:11;18.70;1.00
6756;DHT22;3415;51.148;7.014;2022-07-21T15:57:38;18.70;1.00
6756;DHT22;3415;51.148;7.014;2022-07-21T16:00:06;18.70;1.00
6756;DHT22;3415;51.148;7.014;2022-07-21T16:02:35;18.70;1.00
6756;DHT22;3415;51.148;7.014;2022-07-21T16:05:02;18.70;1.00
6756;DHT22;3415;51.148;7.014;2022-07-21T16:07:29;18.60;1.00
6756;DHT22;3415;51.148;7.014;2022-07-21T16:09:56;18.60;1.00
6756;DHT22;3415;51.148;7.014;2022-07-21T16:12:24;18.60;1.00
6756;DHT22;3415;51.148;7.014;2022-07-21T16:14:51;18.60;1.00
6756;DHT22;3415;51.148;7.014;2022-07-21T16:17:18;18.60;1.00
6756;DHT22;3415;51.148;7.014;2022-07-21T16:19:45;18.60;1.00
6756;DHT22;3415;51.148;7.014;2022-07-21T16:22:12;18.60;1.00
6756;DHT22;3415;51.148;7.014;2022-07-21T16:24:39;18.60;1.00
6756;DHT22;3415;51.148;7.014;2022-07-21T16:27:06;18.50;1.00
6756;DHT22;3415;51.148;7.014;2022-07-21T16:29:35;18.50;1.00
6756;DHT22;3415;51.148;7.014;2022-07-21T16:32:02;18.40;1.00
6756;DHT22;3415;51.148;7.014;2022-07-21T16:34:31;18.40;1.00
6756;DHT22;3415;51.148;7.014;2022-07-21T16:36:59;18.30;1.00
6756;DHT22;3415;51.148;7.014;2022-07-21T16:39:27;18.40;1.00
6756;DHT22;3415;51.148;7.014;2022-07-21T16:41:54;18.20;1.00
6756;DHT22;3415;51.148;7.014;2022-07-21T16:44:21;18.20;1.00
6756;DHT22;3415;51.148;7.014;2022-07-21T16:46:50;18.30;1.00
6756;DHT22;3415;51.148;7.014;2022-07-21T16:49:17;18.40;1.00
6756;DHT22;3415;51.148;7.014;2022-07-21T16:51:45;18.30;1.00
6756;DHT22;3415;51.148;7.014;2022-07-21T16:54:12;18.20;1.00
6756;DHT22;3415;51.148;7.014;2022-07-21T16:56:39;18.20;1.00
6756;DHT22;3415;51.148;7.014;2022-07-21T16:59:07;18.10;1.00
6756;DHT22;3415;51.148;7.014;2022-07-21T17:01:35;18.10;1.00
6756;DHT22;3415;51.148;7.014;2022-07-21T17:04:04;18.10;1.00
6756;DHT22;3415;51.148;7.014;2022-07-21T17:06:32;18.10;1.00
6756;DHT22;3415;51.148;7.014;2022-07-21T17:08:59;18.30;1.00
6756;DHT22;3415;51.148;7.014;2022-07-21T17:11:26;18.00;1.00
6756;DHT22;3415;51.148;7.014;2022-07-21T17:13:53;18.00;1.00
6756;DHT22;3415;51.148;7.014;2022-07-21T17:16:19;17.90;1.00
6756;DHT22;3415;51.148;7.014;2022-07-21T17:18:46;17.90;1.00
6756;DHT22;3415;51.148;7.014;2022-07-21T17:21:15;17.90;1.00
6756;DHT22;3415;51.148;7.014;2022-07-21T17:23:42;17.90;1.00
6756;DHT22;3415;51.148;7.014;2022-07-21T17:26:09;17.90;1.00
6756;DHT22;3415;51.148;7.014;2022-07-21T17:28:36;17.90;1.00
6756;DHT22;3415;51.148;7.014;2022-07-21T17:31:03;17.90;1.00
6756;DHT22;3415;51.148;7.014;2022-07-21T17:33:30;17.90;1.00
6756;DHT22;3415;51.148;7.014;2022-07-21T17:35:56;18.00;1.00
6756;DHT22;3415;51.148;7.014;2022-07-21T17:38:25;17.90;1.00
6756;DHT22;3415;51.148;7.014;2022-07-21T17:40:51;17.90;1.00
6756;DHT22;3415;51.148;7.014;2022-07-21T17:43:19;17.90;1.00
6756;DHT22;3415;51.148;7.014;2022-07-21T17:45:46;17.90;1.00
6756;DHT22;3415;51.148;7.014;2022-07-21T17:48:12;17.90;1.00
6756;DHT22;3415;51.148;7.014;2022-07-21T17:50:39;17.90;1.00
6756;DHT22;3415;51.148;7.014;2022-07-21T17:53:06;17.80;1.00
6756;DHT22;3415;51.148;7.014;2022-07-21T17:55:35;17.70;1.00
6756;DHT22;3415;51.148;7.014;2022-07-21T17:58:02;17.70;1.00
6756;DHT22;3415;51.148;7.014;2022-07-21T18:00:47;17.70;1.00
6756;DHT22;3415;51.148;7.014;2022-07-21T18:03:13;17.70;1.00
6756;DHT22;3415;51.148;7.014;2022-07-21T18:05:40;17.70;1.00
6756;DHT22;3415;51.148;7.014;2022-07-21T18:08:08;17.70;1.00
6756;DHT22;3415;51.148;7.014;2022-07-21T18:10:36;17.70;1.00
6756;DHT22;3415;51.148;7.014;2022-07-21T18:13:03;17.60;1.00
6756;DHT22;3415;51.148;7.014;2022-07-21T18:15:30;17.60;1.00
6756;DHT22;3415;51.148;7.014;2022-07-21T18:17:57;17.60;1.00
6756;DHT22;3415;51.148;7.014;2022-07-21T18:20:24;17.70;1.00
6756;DHT22;3415;51.148;7.014;2022-07-21T18:22:51;17.70;1.00
6756;DHT22;3415;51.148;7.014;2022-07-21T18:25:18;17.60;1.00
6756;DHT22;3415;51.148;7.014;2022-07-21T18:27:46;17.60;1.00
6756;DHT22;3415;51.148;7.014;2022-07-21T18:30:13;17.70;1.00
6756;DHT22;3415;51.148;7.014;2022-07-21T18:32:41;17.70;1.00
6756;DHT22;3415;51.148;7.014;2022-07-21T18:35:08;17.70;1.00
6756;DHT22;3415;51.148;7.014;2022-07-21T18:37:35;17.60;1.00
6756;DHT22;3415;51.148;7.014;2022-07-21T18:40:03;17.70;1.00
6756;DHT22;3415;51.148;7.014;2022-07-21T18:42:30;17.70;1.00
6756;DHT22;3415;51.148;7.014;2022-07-21T18:44:58;17.70;1.00
6756;DHT22;3415;51.148;7.014;2022-07-21T18:47:25;17.60;1.00
6756;DHT22;3415;51.148;7.014;2022-07-21T18:49:51;17.60;1.00
6756;DHT22;3415;51.148;7.014;2022-07-21T18:52:18;17.60;1.00
6756;DHT22;3415;51.148;7.014;2022-07-21T18:54:46;17.60;1.00
6756;DHT22;3415;51.148;7.014;2022-07-21T18:57:13;17.50;1.00
6756;DHT22;3415;51.148;7.014;2022-07-21T18:59:40;17.50;1.00
6756;DHT22;3415;51.148;7.014;2022-07-21T19:02:09;17.50;1.00
6756;DHT22;3415;51.148;7.014;2022-07-21T19:04:36;17.60;1.00
6756;DHT22;3415;51.148;7.014;2022-07-21T19:07:03;17.50;1.00
6756;DHT22;3415;51.148;7.014;2022-07-21T19:09:30;17.50;1.00
6756;DHT22;3415;51.148;7.014;2022-07-21T19:11:57;17.50;1.00
6756;DHT22;3415;51.148;7.014;2022-07-21T19:14:23;17.30;1.00
6756;DHT22;3415;51.148;7.014;2022-07-21T19:16:50;17.30;1.00
6756;DHT22;3415;51.148;7.014;2022-07-21T19:19:19;17.30;1.00
6756;DHT22;3415;51.148;7.014;2022-07-21T19:21:45;17.30;1.00
6756;DHT22;3415;51.148;7.014;2022-07-21T19:24:12;17.30;1.00
6756;DHT22;3415;51.148;7.014;2022-07-21T19:26:40;17.20;1.00
6756;DHT22;3415;51.148;7.014;2022-07-21T19:29:06;17.20;1.00
6756;DHT22;3415;51.148;7.014;2022-07-21T19:31:33;17.20;1.00
6756;DHT22;3415;51.148;7.014;2022-07-21T19:34:00;17.20;1.00
6756;DHT22;3415;51.148;7.014;2022-07-21T19:36:29;17.20;1.00
6756;DHT22;3415;51.148;7.014;2022-07-21T19:38:56;17.20;1.00
6756;DHT22;3415;51.148;7.014;2022-07-21T19:41:23;17.20;1.00
6756;DHT22;3415;51.148;7.014;2022-07-21T19:43:52;17.20;1.00
6756;DHT22;3415;51.148;7.014;2022-07-21T19:46:19;17.30;1.00
6756;DHT22;3415;51.148;7.014;2022-07-21T19:48:46;17.20;1.00
6756;DHT22;3415;51.148;7.014;2022-07-21T19:51:13;17.30;1.00
6756;DHT22;3415;51.148;7.014;2022-07-21T19:53:41;17.20;1.00
6756;DHT22;3415;51.148;7.014;2022-07-21T19:56:08;17.20;1.00
6756;DHT22;3415;51.148;7.014;2022-07-21T19:58:35;17.20;1.00
6756;DHT22;3415;51.148;7.014;2022-07-21T20:01:03;17.20;1.00
6756;DHT22;3415;51.148;7.014;2022-07-21T20:03:30;17.20;1.00
6756;DHT22;3415;51.148;7.014;2022-07-21T20:05:57;17.20;1.00
6756;DHT22;3415;51.148;7.014;2022-07-21T20:08:24;17.20;1.00
6756;DHT22;3415;51.148;7.014;2022-07-21T20:10:52;17.20;1.00
6756;DHT22;3415;51.148;7.014;2022-07-21T20:13:20;17.20;1.00
6756;DHT22;3415;51.148;7.014;2022-07-21T20:15:47;17.20;1.00
6756;DHT22;3415;51.148;7.014;2022-07-21T20:18:14;17.20;1.00
6756;DHT22;3415;51.148;7.014;2022-07-21T20:20:41;17.10;1.00
6756;DHT22;3415;51.148;7.014;2022-07-21T20:23:08;17.10;1.00
6756;DHT22;3415;51.148;7.014;2022-07-21T20:25:35;17.10;1.00
6756;DHT22;3415;51.148;7.014;2022-07-21T20:28:04;17.10;1.00
6756;DHT22;3415;51.148;7.014;2022-07-21T20:30:31;17.10;1.00
6756;DHT22;3415;51.148;7.014;2022-07-21T20:32:59;17.10;1.00
6756;DHT22;3415;51.148;7.014;2022-07-21T20:35:26;16.90;1.00
6756;DHT22;3415;51.148;7.014;2022-07-21T20:37:53;17.10;1.00
6756;DHT22;3415;51.148;7.014;2022-07-21T20:40:21;17.00;1.00
6756;DHT22;3415;51.148;7.014;2022-07-21T20:42:48;17.00;1.00
6756;DHT22;3415;51.148;7.014;2022-07-21T20:45:18;17.00;1.00
6756;DHT22;3415;51.148;7.014;2022-07-21T20:47:45;17.00;1.00
6756;DHT22;3415;51.148;7.014;2022-07-21T20:50:12;17.00;1.00
6756;DHT22;3415;51.148;7.014;2022-07-21T20:52:39;17.00;1.00
6756;DHT22;3415;51.148;7.014;2022-07-21T20:55:07;17.00;1.00
6756;DHT22;3415;51.148;7.014;2022-07-21T20:57:36;17.00;1.00
6756;DHT22;3415;51.148;7.014;2022-07-21T21:00:04;17.00;1.00
6756;DHT22;3415;51.148;7.014;2022-07-21T21:02:33;17.00;1.00
6756;DHT22;3415;51.148;7.014;2022-07-21T21:05:00;17.00;1.00
6756;DHT22;3415;51.148;7.014;2022-07-21T21:07:26;17.00;1.00
6756;DHT22;3415;51.148;7.014;2022-07-21T21:12:21;17.00;1.00
6756;DHT22;3415;51.148;7.014;2022-07-21T21:14:49;17.00;1.00
6756;DHT22;3415;51.148;7.014;2022-07-21T21:17:17;17.00;1.00
6756;DHT22;3415;51.148;7.014;2022-07-21T21:19:45;16.90;1.00
6756;DHT22;3415;51.148;7.014;2022-07-21T21:22:12;17.00;1.00
6756;DHT22;3415;51.148;7.014;2022-07-21T21:24:39;17.00;1.00
6756;DHT22;3415;51.148;7.014;2022-07-21T21:27:05;17.00;1.00
6756;DHT22;3415;51.148;7.014;2022-07-21T21:29:32;16.90;1.00
6756;DHT22;3415;51.148;7.014;2022-07-21T21:31:59;16.90;1.00
6756;DHT22;3415;51.148;7.014;2022-07-21T21:34:26;17.00;1.00
6756;DHT22;3415;51.148;7.014;2022-07-21T21:36:54;16.90;1.00
6756;DHT22;3415;51.148;7.014;2022-07-21T21:39:21;16.80;1.00
6756;DHT22;3415;51.148;7.014;2022-07-21T21:41:48;16.80;1.00
6756;DHT22;3415;51.148;7.014;2022-07-21T21:44:15;16.90;1.00
6756;DHT22;3415;51.148;7.014;2022-07-21T21:46:42;16.80;1.00
6756;DHT22;3415;51.148;7.014;2022-07-21T21:49:09;16.80;1.00
6756;DHT22;3415;51.148;7.014;2022-07-21T21:51:35;16.80;1.00
6756;DHT22;3415;51.148;7.014;2022-07-21T21:54:04;16.80;1.00
6756;DHT22;3415;51.148;7.014;2022-07-21T21:56:31;16.80;1.00
6756;DHT22;3415;51.148;7.014;2022-07-21T21:58:57;16.80;1.00
6756;DHT22;3415;51.148;7.014;2022-07-21T22:01:24;16.70;1.00
6756;DHT22;3415;51.148;7.014;2022-07-21T22:03:51;16.70;1.00
6756;DHT22;3415;51.148;7.014;2022-07-21T22:06:18;16.70;1.00
6756;DHT22;3415;51.148;7.014;2022-07-21T22:08:45;16.70;1.00
6756;DHT22;3415;51.148;7.014;2022-07-21T22:11:13;16.70;1.00
6756;DHT22;3415;51.148;7.014;2022-07-21T22:13:40;16.60;1.00
6756;DHT22;3415;51.148;7.014;2022-07-21T22:16:07;16.70;1.00
6756;DHT22;3415;51.148;7.014;2022-07-21T22:18:34;16.70;1.00
6756;DHT22;3415;51.148;7.014;2022-07-21T22:21:01;16.70;1.00
6756;DHT22;3415;51.148;7.014;2022-07-21T22:23:28;16.70;1.00
6756;DHT22;3415;51.148;7.014;2022-07-21T22:25:54;16.70;1.00
6756;DHT22;3415;51.148;7.014;2022-07-21T22:28:23;16.70;1.00
6756;DHT22;3415;51.148;7.014;2022-07-21T22:30:49;16.70;1.00
6756;DHT22;3415;51.148;7.014;2022-07-21T22:33:16;16.60;1.00
6756;DHT22;3415;51.148;7.014;2022-07-21T22:35:43;16.60;1.00
6756;DHT22;3415;51.148;7.014;2022-07-21T22:38:10;16.70;1.00
6756;DHT22;3415;51.148;7.014;2022-07-21T22:40:37;16.70;1.00
6756;DHT22;3415;51.148;7.014;2022-07-21T22:43:04;16.70;1.00
6756;DHT22;3415;51.148;7.014;2022-07-21T22:45:32;16.60;1.00
6756;DHT22;3415;51.148;7.014;2022-07-21T22:48:03;16.60;1.00
6756;DHT22;3415;51.148;7.014;2022-07-21T22:50:30;16.70;1.00
6756;DHT22;3415;51.148;7.014;2022-07-21T22:52:58;16.70;1.00
6756;DHT22;3415;51.148;7.014;2022-07-21T22:55:25;16.70;1.00